Terminal Aerodrome Forecast
Issued by NWS

Home | Current Version | Previous Version | Text Only | Print | Product List | Glossary On
Versions: 1 2 3 4 5 6 7 8 9 10 11 12 13 14 15 16 17 18 19
000
FTUS42 KTAE 192320
TAFECP
TAF
KECP 192320Z 2000/2024 14006KT P6SM SCT010 BKN020
     FM200400 18005KT 5SM -RA BR SCT007 BKN015
      TEMPO 2004/2006 24010G20KT 2SM +TSRA SCT007CB BKN012
     FM200800 16005KT 3SM BR BKN007
     FM201600 21010KT P6SM BKN030=

USA.gov is the U.S. government's official web portal to all federal, state and local government web resources and services.